Time;durP1;ratioP1;P1;durP2;ratioP2;P2;SDS_P1;SDS_P2;PMS_P1;PMS_P2;Temp;Humidity;BMP_temperature;BMP_pressure;BME280_temperature;BME280_humidity;BME280_pressure;Samples;Min_cycle;Max_cycle;Signal;HPM_P1;HPM_P2
2020/12/13 00:02:19;;;;;;;26.48;11.25;;;;;;;-3.60;53.43;101081.41;5029026;28;20037;-55
2020/12/13 00:04:45;;;;;;;27.38;12.63;;;;;;;-3.55;53.32;101073.56;5031843;28;20041;-58
2020/12/13 00:07:10;;;;;;;23.83;7.55;;;;;;;-3.34;52.73;101089.22;5031888;28;20052;-59
2020/12/13 00:09:36;;;;;;;28.15;12.65;;;;;;;-3.44;53.12;101077.00;5048016;28;20036;-56
2020/12/13 00:12:03;;;;;;;24.38;11.25;;;;;;;-3.43;53.39;101080.50;5032746;28;20133;-61
2020/12/13 00:14:29;;;;;;;23.35;9.25;;;;;;;-3.46;53.17;101065.66;5032918;28;20044;-61
2020/12/13 00:16:54;;;;;;;22.33;9.40;;;;;;;-3.32;52.72;101083.97;5031369;28;20090;-60
2020/12/13 00:19:20;;;;;;;31.08;9.07;;;;;;;-3.36;53.20;101085.72;5032355;28;20128;-60
2020/12/13 00:21:50;;;;;;;26.20;9.75;;;;;;;-3.42;52.76;101077.88;5033043;28;20048;-60
2020/12/13 00:24:17;;;;;;;26.33;11.32;;;;;;;-3.46;53.23;101095.34;5032675;28;20033;-59
2020/12/13 00:26:42;;;;;;;23.88;10.45;;;;;;;-3.46;53.50;101079.66;5031815;28;20045;-61
2020/12/13 00:29:08;;;;;;;29.10;11.98;;;;;;;-3.40;52.66;101075.25;5031659;28;20145;-62
2020/12/13 00:31:33;;;;;;;28.58;11.68;;;;;;;-3.42;52.89;101071.78;5014915;28;20481;-59
2020/12/13 00:33:59;;;;;;;23.02;8.55;;;;;;;-3.37;53.33;101072.63;5031536;28;20111;-58
2020/12/13 00:36:24;;;;;;;23.48;10.20;;;;;;;-3.38;53.10;101076.97;5013810;28;20232;-55
2020/12/13 00:38:51;;;;;;;24.85;11.45;;;;;;;-3.42;53.35;101064.78;5030992;28;20042;-59
2020/12/13 00:41:17;;;;;;;25.05;11.82;;;;;;;-3.40;53.74;101068.25;5038710;28;20044;-62
2020/12/13 00:43:42;;;;;;;23.02;9.98;;;;;;;-3.30;53.66;101076.09;5051976;28;20140;-61
2020/12/13 00:46:08;;;;;;;27.33;11.57;;;;;;;-3.46;54.39;101052.56;5034100;28;20072;-57
2020/12/13 00:48:33;;;;;;;24.95;11.13;;;;;;;-3.32;54.57;101069.13;5041757;28;20404;-57
2020/12/13 00:50:59;;;;;;;23.58;10.50;;;;;;;-3.44;54.53;101039.50;5017513;28;20049;-55
2020/12/13 00:53:24;;;;;;;26.60;11.18;;;;;;;-3.80;54.55;100995.09;5014218;28;20553;-57
2020/12/13 00:55:50;;;;;;;23.02;10.90;;;;;;;-3.59;54.56;101024.69;4997174;28;20132;-60
2020/12/13 00:58:15;;;;;;;22.52;9.13;;;;;;;-3.40;55.44;101060.41;5030945;28;20064;-56
2020/12/13 01:00:41;;;;;;;19.98;6.90;;;;;;;-3.40;55.64;101055.16;5031804;28;20508;-54
2020/12/13 01:03:06;;;;;;;22.20;10.50;;;;;;;-3.87;55.75;100994.22;5031807;28;20033;-55
2020/12/13 01:05:32;;;;;;;23.63;10.48;;;;;;;-3.44;55.79;101052.59;5013073;28;20046;-54
2020/12/13 01:07:57;;;;;;;23.42;11.50;;;;;;;-3.54;55.99;101068.28;5031376;28;20037;-58
2020/12/13 01:10:23;;;;;;;24.73;10.68;;;;;;;-3.48;56.01;101043.84;5029014;28;20108;-56
2020/12/13 01:12:49;;;;;;;24.33;11.23;;;;;;;-3.51;56.65;101043.88;5030764;28;20489;-57
2020/12/13 01:15:15;;;;;;;23.02;10.10;;;;;;;-3.52;56.95;101057.84;5030545;28;20037;-57
2020/12/13 01:17:45;;;;;;;24.70;10.88;;;;;;;-3.55;56.66;101052.59;5030860;28;20037;-63
2020/12/13 01:20:11;;;;;;;24.55;9.65;;;;;;;-3.54;57.12;101041.25;5030751;28;20030;-63
2020/12/13 01:22:38;;;;;;;25.95;10.23;;;;;;;-3.59;57.86;101050.88;5013583;28;20064;-51
2020/12/13 01:25:07;;;;;;;21.02;9.00;;;;;;;-3.59;57.41;101056.13;5031061;28;20060;-53
2020/12/13 01:27:34;;;;;;;23.85;11.05;;;;;;;-3.71;57.90;101036.94;5030907;28;20040;-55
2020/12/13 01:30:00;;;;;;;24.90;10.02;;;;;;;-3.57;57.77;101034.28;5012776;28;20369;-54
2020/12/13 01:32:27;;;;;;;17.30;7.68;;;;;;;-3.57;57.23;101018.56;5030561;28;20030;-58
2020/12/13 01:34:52;;;;;;;26.83;10.15;;;;;;;-3.43;57.17;101034.22;5013387;28;20040;-54
2020/12/13 01:37:18;;;;;;;25.73;11.15;;;;;;;-3.90;56.94;100954.97;5029533;28;20056;-58
2020/12/13 01:39:43;;;;;;;21.80;10.63;;;;;;;-3.47;56.88;101032.50;5029891;28;20045;-56
2020/12/13 01:42:09;;;;;;;25.67;11.50;;;;;;;-3.63;56.73;100998.50;5026080;28;20164;-58
2020/12/13 01:44:37;;;;;;;27.25;9.88;;;;;;;-3.39;56.87;101025.47;5010893;28;20046;-55
2020/12/13 01:47:05;;;;;;;24.90;10.68;;;;;;;-3.34;56.24;101034.22;4992637;28;20040;-56
2020/12/13 01:49:43;;;;;;;26.00;11.82;;;;;;;-3.25;56.49;101024.56;5010831;28;20076;-54
2020/12/13 01:55:08;;;;;;;23.13;10.85;;;;;;;-3.06;55.80;101021.00;5030246;28;20045;-59
2020/12/13 01:57:38;;;;;;;12.63;5.18;;;;;;;-3.00;55.40;100999.13;5030453;28;20140;-55
2020/12/13 02:00:13;;;;;;;21.17;9.07;;;;;;;-2.94;54.98;101003.44;5030954;28;20512;-55
2020/12/13 02:02:56;;;;;;;27.95;11.43;;;;;;;-2.98;54.80;101017.47;5016968;28;20037;-55
2020/12/13 02:05:22;;;;;;;21.95;9.98;;;;;;;-3.04;54.68;101010.50;4990989;28;20041;-58
2020/12/13 02:07:49;;;;;;;22.27;9.63;;;;;;;-2.93;55.03;101026.16;4991384;28;20092;-55
2020/12/13 02:10:15;;;;;;;17.58;6.18;;;;;;;-2.82;54.11;101045.34;4973880;28;20034;-61
2020/12/13 02:12:41;;;;;;;23.30;11.40;;;;;;;-3.07;54.05;101013.13;5001849;28;20413;-56
2020/12/13 02:15:08;;;;;;;21.45;10.05;;;;;;;-3.17;54.19;100987.00;5010373;28;20030;-57
2020/12/13 02:17:36;;;;;;;19.25;8.75;;;;;;;-3.02;54.29;101053.28;5010781;28;20034;-57
2020/12/13 02:20:12;;;;;;;17.25;8.25;;;;;;;-3.09;53.87;101007.91;5010890;28;20034;-57
2020/12/13 02:22:42;;;;;;;22.38;8.82;;;;;;;-2.99;53.83;101011.38;5010163;28;20091;-58
2020/12/13 02:25:17;;;;;;;23.77;10.05;;;;;;;-3.03;53.82;101028.84;5010011;28;20120;-54
2020/12/13 02:27:42;;;;;;;21.73;8.48;;;;;;;-2.96;53.44;101007.84;5011475;28;20041;-55
2020/12/13 02:30:08;;;;;;;19.58;9.35;;;;;;;-3.02;53.65;101011.34;5010359;28;20476;-55
2020/12/13 02:32:34;;;;;;;26.30;11.25;;;;;;;-3.10;53.51;101018.38;5009792;28;20046;-56
2020/12/13 02:35:00;;;;;;;26.70;12.05;;;;;;;-3.36;53.83;100970.50;5010048;28;20040;-54
2020/12/13 02:37:27;;;;;;;19.05;8.23;;;;;;;-3.03;53.06;101013.13;5025472;28;20076;-55
2020/12/13 02:39:53;;;;;;;23.90;9.80;;;;;;;-3.50;52.62;100930.41;5011068;28;20061;-52
2020/12/13 02:42:18;;;;;;;20.70;9.13;;;;;;;-3.12;53.58;101012.28;5008832;28;20073;-57
2020/12/13 02:44:44;;;;;;;19.67;9.60;;;;;;;-3.09;53.26;101010.53;5010059;28;20034;-54
2020/12/13 02:47:10;;;;;;;21.42;9.82;;;;;;;-3.19;53.07;100969.53;5010239;28;20048;-53
2020/12/13 02:49:38;;;;;;;20.42;9.30;;;;;;;-2.92;52.58;101017.41;5010741;28;20034;-54
2020/12/13 02:52:04;;;;;;;18.65;8.45;;;;;;;-2.92;52.08;101020.91;5009660;28;20044;-56
2020/12/13 02:54:29;;;;;;;22.70;9.30;;;;;;;-3.00;52.41;101012.25;5017375;28;20029;-56
2020/12/13 02:56:55;;;;;;;20.30;10.07;;;;;;;-3.09;52.71;100989.56;5010996;28;20120;-53
2020/12/13 02:59:20;;;;;;;19.38;9.40;;;;;;;-3.06;52.78;101013.13;5029651;28;20126;-54
2020/12/13 03:01:45;;;;;;;15.48;6.80;;;;;;;-3.39;52.16;100905.03;5029348;28;20042;-58
2020/12/13 03:04:11;;;;;;;21.50;9.48;;;;;;;-2.91;51.43;100996.44;5028756;28;20083;-55
2020/12/13 03:06:36;;;;;;;20.27;8.98;;;;;;;-2.98;51.60;100988.63;5027368;28;20053;-58
2020/12/13 03:09:02;;;;;;;17.75;7.80;;;;;;;-2.95;51.96;101006.94;5029189;28;20103;-55
2020/12/13 03:11:28;;;;;;;20.88;8.60;;;;;;;-2.94;51.55;100992.97;5029409;28;20099;-55
2020/12/13 03:13:53;;;;;;;18.02;6.50;;;;;;;-3.44;51.45;100905.94;5011390;28;20100;-57
2020/12/13 03:16:19;;;;;;;20.45;8.73;;;;;;;-3.52;51.68;100919.06;5011105;28;20099;-58
2020/12/13 03:18:44;;;;;;;17.88;7.68;;;;;;;-3.11;51.37;100980.84;5029217;28;20038;-53
2020/12/13 03:21:10;;;;;;;19.42;8.18;;;;;;;-3.43;51.30;100926.88;5011808;28;20041;-53
2020/12/13 03:23:35;;;;;;;15.07;6.63;;;;;;;-2.94;51.42;100999.09;5028288;28;20069;-58
2020/12/13 03:26:01;;;;;;;15.27;6.22;;;;;;;-3.01;50.91;100986.03;5028997;28;20037;-57
2020/12/13 03:28:26;;;;;;;19.23;8.77;;;;;;;-3.20;51.95;100962.56;5029227;28;20430;-55
2020/12/13 03:30:52;;;;;;;18.63;9.50;;;;;;;-3.07;51.52;100976.44;5029525;28;20045;-60
2020/12/13 03:33:18;;;;;;;16.10;7.38;;;;;;;-2.91;51.38;100966.75;5029469;28;20037;-58
2020/12/13 03:35:43;;;;;;;20.50;7.85;;;;;;;-2.97;51.83;100985.13;5029352;28;20076;-56
2020/12/13 03:38:09;;;;;;;15.48;7.88;;;;;;;-3.12;51.40;100947.69;5031597;28;20029;-57
2020/12/13 03:40:34;;;;;;;26.52;8.48;;;;;;;-3.09;51.98;100968.63;5033089;28;20481;-58
2020/12/13 03:43:00;;;;;;;10.88;5.28;;;;;;;-2.99;51.91;100971.16;5032548;28;20120;-52
2020/12/13 03:45:25;;;;;;;15.70;7.50;;;;;;;-3.15;52.05;100968.63;5033129;28;20037;-55
2020/12/13 03:47:51;;;;;;;17.02;8.50;;;;;;;-3.22;52.29;100975.66;5032579;28;20473;-59
2020/12/13 03:50:16;;;;;;;21.27;8.18;;;;;;;-3.36;52.72;100957.41;5033236;28;20394;-50
2020/12/13 03:52:42;;;;;;;20.98;9.38;;;;;;;-3.19;53.11;100972.16;5032759;28;20033;-56
2020/12/13 03:55:07;;;;;;;17.77;7.93;;;;;;;-3.33;53.18;100953.88;5032975;28;20041;-60
2020/12/13 03:57:33;;;;;;;18.88;7.00;;;;;;;-3.14;53.19;100982.63;5027006;28;20068;-59
2020/12/13 03:59:58;;;;;;;18.73;7.18;;;;;;;-3.41;52.66;100919.88;5011620;28;20046;-55
2020/12/13 04:02:24;;;;;;;17.88;7.10;;;;;;;-3.13;53.25;100971.25;4995313;28;20124;-53
2020/12/13 04:04:49;;;;;;;15.50;6.72;;;;;;;-3.65;53.13;100900.78;5013396;28;20104;-55
2020/12/13 04:07:15;;;;;;;21.60;7.90;;;;;;;-3.12;52.65;100983.47;5013613;28;20044;-57
2020/12/13 04:09:40;;;;;;;22.80;7.88;;;;;;;-3.20;52.76;100979.16;5012681;28;20042;-52
2020/12/13 04:12:06;;;;;;;21.63;7.82;;;;;;;-3.68;52.67;100885.09;5013095;28;20038;-56
2020/12/13 04:14:32;;;;;;;18.70;7.78;;;;;;;-3.14;52.66;100986.09;5012615;28;20069;-52
2020/12/13 04:16:58;;;;;;;19.27;8.00;;;;;;;-3.17;52.96;100980.88;5012372;28;20034;-59
2020/12/13 04:19:23;;;;;;;15.63;7.82;;;;;;;-3.19;53.05;100980.00;5012952;28;20130;-55
2020/12/13 04:21:48;;;;;;;13.05;6.32;;;;;;;-2.97;51.87;100986.00;5012950;28;20038;-57
2020/12/13 04:24:14;;;;;;;14.32;6.30;;;;;;;-3.20;51.76;100971.28;5012889;28;20120;-57
2020/12/13 04:26:39;;;;;;;16.38;5.40;;;;;;;-2.97;51.94;100996.50;5011440;28;20136;-55
2020/12/13 04:29:05;;;;;;;17.60;7.00;;;;;;;-3.05;51.66;100985.16;5022807;28;20133;-59
2020/12/13 04:31:30;;;;;;;14.15;6.75;;;;;;;-2.97;51.01;100974.66;5031846;28;20049;-57
2020/12/13 04:33:56;;;;;;;14.45;6.20;;;;;;;-2.98;51.06;100975.53;5032473;28;20512;-58
2020/12/13 04:36:22;;;;;;;16.52;7.18;;;;;;;-3.45;50.67;100918.16;5032493;28;20124;-56
2020/12/13 04:38:47;;;;;;;12.48;5.68;;;;;;;-3.19;50.96;100962.56;5029930;28;20486;-57
2020/12/13 04:41:13;;;;;;;14.38;6.20;;;;;;;-3.02;50.77;100993.00;5013919;28;20467;-60
2020/12/13 04:43:39;;;;;;;12.05;5.45;;;;;;;-2.96;50.85;100999.97;4992892;28;20534;-58
2020/12/13 04:46:07;;;;;;;13.20;6.20;;;;;;;-3.08;50.63;100986.06;4992629;28;20126;-55
2020/12/13 04:48:33;;;;;;;13.98;6.15;;;;;;;-3.40;50.84;100911.13;4992350;28;20034;-54
2020/12/13 04:50:59;;;;;;;16.73;7.03;;;;;;;-3.00;50.35;100966.81;5011312;28;20478;-60
2020/12/13 04:53:28;;;;;;;15.65;6.68;;;;;;;-3.38;50.37;100896.28;5012045;28;20038;-60
2020/12/13 04:55:59;;;;;;;15.88;7.22;;;;;;;-2.84;50.26;101012.13;5011460;28;20041;-62
2020/12/13 04:58:27;;;;;;;16.02;7.05;;;;;;;-3.25;50.24;100930.28;5012001;28;20402;-55
2020/12/13 05:00:55;;;;;;;15.05;6.95;;;;;;;-2.87;51.40;100999.94;5011864;28;20108;-50
2020/12/13 05:03:22;;;;;;;14.85;6.50;;;;;;;-2.84;51.17;100972.81;5011545;28;20508;-58
2020/12/13 05:05:47;;;;;;;14.68;6.78;;;;;;;-2.80;51.51;100974.53;5011199;28;20072;-52
2020/12/13 05:08:13;;;;;;;19.70;7.22;;;;;;;-3.08;51.48;100919.69;5011731;28;20077;-56
2020/12/13 05:10:39;;;;;;;14.75;6.03;;;;;;;-2.74;51.75;100961.41;5011009;28;20084;-57
2020/12/13 05:13:06;;;;;;;14.52;7.13;;;;;;;-2.74;51.00;100969.28;5015020;28;20037;-57
2020/12/13 05:15:33;;;;;;;14.45;7.10;;;;;;;-3.29;51.44;100886.66;5013157;28;20442;-55
2020/12/13 05:17:59;;;;;;;14.38;6.03;;;;;;;-2.71;51.07;100984.97;5023537;28;20038;-61
2020/12/13 05:20:27;;;;;;;13.93;6.70;;;;;;;-3.39;51.35;100859.66;4993250;28;20038;-63
2020/12/13 05:22:54;;;;;;;16.17;6.78;;;;;;;-2.70;51.05;100986.72;5021947;28;20029;-55
2020/12/13 05:25:37;;;;;;;14.07;6.28;;;;;;;-2.89;50.95;100954.53;5013266;28;20508;-55
2020/12/13 05:28:08;;;;;;;14.45;6.07;;;;;;;-2.73;50.24;100965.78;5029612;28;20551;-55
2020/12/13 05:30:48;;;;;;;17.08;6.88;;;;;;;-2.67;50.35;100996.28;5023621;28;20050;-54
2020/12/13 05:36:09;;;;;;;12.82;6.22;;;;;;;-2.76;50.20;100985.00;5011125;28;20046;-54
2020/12/13 05:38:36;;;;;;;15.63;7.13;;;;;;;-2.88;50.74;100974.63;5011182;28;20038;-53
2020/12/13 05:41:05;;;;;;;14.13;6.65;;;;;;;-2.85;51.13;100971.97;5010710;28;20037;-53
2020/12/13 05:43:34;;;;;;;17.50;7.38;;;;;;;-2.79;50.58;100971.91;5009289;28;20042;-53
2020/12/13 05:48:55;;;;;;;16.15;6.68;;;;;;;-2.72;50.16;100983.25;5010971;28;20135;-59
2020/12/13 05:51:26;;;;;;;17.42;8.05;;;;;;;-3.26;50.07;100886.63;4993677;28;20447;-60
2020/12/13 05:53:57;;;;;;;15.07;7.55;;;;;;;-2.82;50.00;100982.44;5010075;28;20041;-60
2020/12/13 05:56:23;;;;;;;13.90;5.30;;;;;;;-2.82;50.30;100985.06;5010939;28;20068;-60
2020/12/13 05:58:52;;;;;;;13.23;6.38;;;;;;;-3.00;50.02;100967.69;5027686;28;20488;-61
2020/12/13 06:01:21;;;;;;;16.45;6.75;;;;;;;-3.41;49.75;100883.22;5029680;28;20527;-55
2020/12/13 06:03:50;;;;;;;14.18;6.00;;;;;;;-2.99;49.99;100979.03;5029770;28;20063;-57
2020/12/13 06:06:23;;;;;;;13.02;6.72;;;;;;;-3.07;50.45;100987.81;5012620;28;20431;-58
2020/12/13 06:09:11;;;;;;;19.17;7.18;;;;;;;-3.10;51.03;100982.59;5030217;28;20061;-59
2020/12/13 06:11:47;;;;;;;15.07;7.15;;;;;;;-2.99;50.71;100981.66;5012331;28;20033;-56
2020/12/13 06:14:21;;;;;;;13.45;6.53;;;;;;;-2.93;50.29;100965.88;5029497;28;20041;-55
2020/12/13 06:16:48;;;;;;;12.70;5.40;;;;;;;-3.13;50.09;100945.94;5030494;28;20094;-64
2020/12/13 06:19:20;;;;;;;10.93;4.78;;;;;;;-3.05;50.61;100970.34;5012683;28;20109;-65
2020/12/13 06:21:46;;;;;;;16.48;7.50;;;;;;;-3.22;50.96;100965.19;5028789;28;20067;-65
2020/12/13 06:24:13;;;;;;;13.07;6.07;;;;;;;-3.22;51.12;100972.16;5029565;28;20041;-63
2020/12/13 06:26:38;;;;;;;20.13;6.55;;;;;;;-3.17;50.90;100975.63;5030013;28;20056;-59
2020/12/13 06:29:05;;;;;;;8.85;4.47;;;;;;;-3.15;50.63;100983.50;5030560;28;20493;-62
2020/12/13 06:31:33;;;;;;;17.58;6.75;;;;;;;-3.73;51.22;100896.50;5030024;28;20080;-58
2020/12/13 06:33:58;;;;;;;21.45;8.00;;;;;;;-3.23;51.11;100989.66;5028898;28;20378;-62
2020/12/13 06:36:25;;;;;;;15.90;6.82;;;;;;;-3.25;51.03;100986.16;5011800;28;20043;-62
2020/12/13 06:38:53;;;;;;;14.48;7.05;;;;;;;-3.44;51.09;100961.78;5030060;28;20559;-63
2020/12/13 06:41:22;;;;;;;16.55;7.82;;;;;;;-3.30;51.24;100979.19;5029879;28;20037;-62
2020/12/13 06:43:56;;;;;;;17.77;6.95;;;;;;;-3.32;51.19;100980.09;5029733;28;20111;-61
2020/12/13 06:46:25;;;;;;;15.10;5.38;;;;;;;-3.32;51.04;100987.94;5029770;28;20045;-68
2020/12/13 06:48:51;;;;;;;14.05;6.53;;;;;;;-3.24;51.19;100981.78;5030324;28;20099;-68
2020/12/13 06:51:28;;;;;;;15.75;6.50;;;;;;;-3.39;51.13;100988.81;5029984;28;20462;-66
2020/12/13 06:53:54;;;;;;;17.00;7.30;;;;;;;-3.46;50.63;100967.06;5029327;28;20033;-60
2020/12/13 06:56:20;;;;;;;22.75;7.50;;;;;;;-3.51;51.08;100979.25;5029805;28;20140;-59
2020/12/13 06:58:48;;;;;;;15.75;7.05;;;;;;;-3.36;51.09;100986.22;5023461;28;20104;-59
2020/12/13 07:01:19;;;;;;;16.67;6.57;;;;;;;-3.33;51.04;100986.19;5009613;28;20061;-57
2020/12/13 07:03:45;;;;;;;18.50;7.30;;;;;;;-3.36;51.68;100996.69;5009350;28;20041;-56
2020/12/13 07:06:17;;;;;;;14.95;7.50;;;;;;;-3.37;51.33;100994.06;5015492;28;20547;-55
2020/12/13 07:08:47;;;;;;;12.98;6.13;;;;;;;-3.38;51.35;100974.00;5018420;28;20033;-51
2020/12/13 07:11:13;;;;;;;22.17;7.07;;;;;;;-3.36;51.36;101006.28;5017217;28;20121;-57
2020/12/13 07:13:43;;;;;;;14.75;7.32;;;;;;;-3.41;51.51;100981.88;5021485;28;20041;-59
2020/12/13 07:16:23;;;;;;;14.43;6.88;;;;;;;-3.26;51.10;101023.69;4999747;28;20421;-63
2020/12/13 07:19:05;;;;;;;19.98;8.23;;;;;;;-3.70;51.47;100928.75;5019306;28;20043;-61
2020/12/13 07:21:31;;;;;;;15.57;6.25;;;;;;;-3.27;50.95;100979.19;5024007;28;20033;-57
2020/12/13 07:23:59;;;;;;;17.20;7.85;;;;;;;-3.25;50.97;100967.84;5029321;28;20040;-51
2020/12/13 07:26:26;;;;;;;17.52;7.97;;;;;;;-3.16;51.16;100995.69;4996019;28;20124;-54
2020/12/13 07:28:53;;;;;;;21.23;8.82;;;;;;;-3.13;51.73;101013.16;5022402;28;20041;-54
2020/12/13 07:31:20;;;;;;;18.92;7.68;;;;;;;-3.13;51.22;101003.56;5024114;28;20045;-58
2020/12/13 07:33:46;;;;;;;19.92;7.57;;;;;;;-3.07;51.93;101011.41;5030025;28;20084;-61
2020/12/13 07:36:12;;;;;;;24.05;8.20;;;;;;;-3.15;52.18;101010.53;5031425;28;20037;-59
2020/12/13 07:38:39;;;;;;;20.23;8.45;;;;;;;-3.32;52.65;101003.66;5019881;28;20150;-53
2020/12/13 07:41:17;;;;;;;17.40;8.68;;;;;;;-3.31;52.61;100988.78;5022066;28;20061;-55
2020/12/13 07:44:01;;;;;;;16.85;8.13;;;;;;;-3.19;52.52;101006.19;5021297;28;20030;-57
2020/12/13 07:46:29;;;;;;;18.73;8.35;;;;;;;-3.07;52.31;101008.78;5020672;28;20030;-54
2020/12/13 07:49:17;;;;;;;19.90;8.02;;;;;;;-3.03;53.27;101010.50;5020339;28;20046;-55
2020/12/13 07:51:44;;;;;;;17.42;7.75;;;;;;;-3.20;53.34;100994.88;5021487;28;20056;-60
2020/12/13 07:54:21;;;;;;;18.10;8.70;;;;;;;-3.13;53.87;101000.06;5022067;28;20037;-56
2020/12/13 07:56:52;;;;;;;17.80;6.68;;;;;;;-3.07;53.17;100995.69;5015737;28;20046;-53
2020/12/13 07:59:21;;;;;;;25.58;7.72;;;;;;;-3.12;53.84;100989.59;5013245;28;20069;-55
2020/12/13 08:01:49;;;;;;;24.85;9.75;;;;;;;-3.15;54.40;101000.06;5012097;28;20041;-56
2020/12/13 08:04:28;;;;;;;18.15;8.07;;;;;;;-3.16;55.08;101014.03;5013484;28;20068;-57
2020/12/13 08:06:58;;;;;;;20.60;9.88;;;;;;;-3.27;55.42;100993.13;5013124;28;20231;-57
2020/12/13 08:09:24;;;;;;;19.67;7.97;;;;;;;-3.36;55.65;101015.03;5012902;28;20038;-54
2020/12/13 08:11:50;;;;;;;22.25;9.02;;;;;;;-3.58;55.62;100971.47;5012259;28;20038;-55
2020/12/13 08:14:15;;;;;;;19.20;9.20;;;;;;;-3.37;55.90;101004.53;5012044;28;20095;-56
2020/12/13 08:16:41;;;;;;;21.05;8.35;;;;;;;-3.23;55.85;101009.72;5012489;28;20417;-52
2020/12/13 08:19:12;;;;;;;25.02;9.25;;;;;;;-3.19;56.15;101014.06;5012604;28;20029;-61
2020/12/13 08:21:56;;;;;;;21.17;9.50;;;;;;;-3.36;56.63;101006.28;5012134;28;20383;-62
2020/12/13 08:24:21;;;;;;;22.05;9.43;;;;;;;-3.33;56.29;101001.03;5006024;28;20151;-56
2020/12/13 08:26:49;;;;;;;20.27;9.35;;;;;;;-3.18;56.51;101023.66;5010227;28;20491;-56
2020/12/13 08:29:15;;;;;;;21.88;9.85;;;;;;;-3.20;56.27;101012.31;5011718;28;20041;-54
2020/12/13 08:31:41;;;;;;;21.55;9.57;;;;;;;-3.21;55.99;101018.44;5012123;28;20096;-57
2020/12/13 08:34:07;;;;;;;20.65;9.35;;;;;;;-3.39;56.21;100980.97;5012564;28;20085;-55
2020/12/13 08:36:35;;;;;;;26.13;9.80;;;;;;;-3.26;56.28;100997.50;4994482;28;20053;-55
2020/12/13 08:39:06;;;;;;;19.52;9.95;;;;;;;-3.22;56.34;100996.63;5012111;28;20458;-55
2020/12/13 08:41:32;;;;;;;20.23;8.52;;;;;;;-3.12;55.93;101001.81;4994038;28;20038;-54
2020/12/13 08:43:59;;;;;;;22.25;10.27;;;;;;;-3.15;56.26;101001.81;4996476;28;20482;-57
2020/12/13 08:46:37;;;;;;;25.42;10.15;;;;;;;-3.18;56.10;100993.13;5011656;28;20113;-51
2020/12/13 08:49:05;;;;;;;21.80;10.45;;;;;;;-3.26;56.19;100989.63;5008765;28;20162;-64
2020/12/13 08:51:30;;;;;;;18.85;9.45;;;;;;;-3.21;56.03;101001.00;5006809;28;20038;-59
2020/12/13 08:54:04;;;;;;;19.67;9.60;;;;;;;-3.23;56.40;101002.75;5007932;28;20053;-59
2020/12/13 08:56:34;;;;;;;23.55;10.77;;;;;;;-3.34;56.75;100975.72;4992903;28;20029;-61
2020/12/13 08:59:01;;;;;;;25.58;11.00;;;;;;;-3.24;56.14;100992.25;5028955;28;20136;-60
2020/12/13 09:01:30;;;;;;;24.45;10.20;;;;;;;-3.26;55.87;100980.94;5009793;28;20033;-60
2020/12/13 09:03:56;;;;;;;22.13;10.93;;;;;;;-3.08;56.28;100996.56;5023153;28;20048;-59
2020/12/13 09:06:29;;;;;;;26.80;10.27;;;;;;;-3.07;55.74;100992.16;5031402;28;20362;-60
2020/12/13 09:09:10;;;;;;;22.95;10.32;;;;;;;-3.14;56.43;100991.31;5021004;28;20623;-57
2020/12/13 09:11:36;;;;;;;23.98;10.85;;;;;;;-3.14;56.59;100991.31;5011835;28;20045;-66
2020/12/13 09:14:01;;;;;;;23.92;9.60;;;;;;;-3.04;56.30;100994.78;5017875;28;20107;-60
2020/12/13 09:16:32;;;;;;;20.85;8.57;;;;;;;-2.91;56.12;101003.44;5020771;28;20033;-54
2020/12/13 09:19:11;;;;;;;23.55;10.63;;;;;;;-3.01;56.06;100980.78;5018140;28;20065;-65
2020/12/13 09:21:53;;;;;;;28.95;11.32;;;;;;;-3.06;56.07;100983.44;5017534;28;20022;-52
2020/12/13 09:24:21;;;;;;;19.63;8.60;;;;;;;-3.08;55.68;100975.59;5019081;28;20049;-54
2020/12/13 09:27:04;;;;;;;23.30;10.45;;;;;;;-3.15;55.77;100973.88;5019787;28;20080;-56
2020/12/13 09:29:31;;;;;;;23.48;10.60;;;;;;;-3.06;55.93;100975.56;5020361;28;20042;-54
2020/12/13 09:31:57;;;;;;;21.92;10.35;;;;;;;-3.25;55.40;100940.75;5001095;28;20444;-56
2020/12/13 09:34:23;;;;;;;23.33;11.07;;;;;;;-3.03;55.39;100972.94;5017457;28;20042;-53
2020/12/13 09:36:49;;;;;;;26.58;11.45;;;;;;;-2.98;55.68;100980.78;5019978;28;20038;-55
2020/12/13 09:39:15;;;;;;;24.80;10.60;;;;;;;-2.93;55.46;100972.00;5016494;28;20055;-57
2020/12/13 09:41:40;;;;;;;23.00;10.68;;;;;;;-2.82;55.37;100979.81;5020058;28;20029;-57
2020/12/13 09:44:06;;;;;;;26.88;10.68;;;;;;;-2.94;55.00;100945.81;5019916;28;20387;-51
2020/12/13 09:46:31;;;;;;;19.77;8.98;;;;;;;-2.80;54.96;100970.19;5018810;28;20034;-58
2020/12/13 09:48:57;;;;;;;23.60;11.55;;;;;;;-2.86;55.29;100964.97;5020570;28;20439;-56
2020/12/13 09:51:22;;;;;;;23.73;11.10;;;;;;;-2.92;55.53;100960.66;5017813;28;20036;-59
2020/12/13 09:53:48;;;;;;;22.05;10.15;;;;;;;-2.86;54.91;100966.72;5021503;28;20493;-57
2020/12/13 09:56:17;;;;;;;22.50;8.63;;;;;;;-2.72;55.09;100956.13;5028368;28;20401;-57
2020/12/13 09:58:45;;;;;;;24.42;9.30;;;;;;;-2.84;54.83;100955.34;5027670;28;20136;-59
2020/12/13 10:01:11;;;;;;;26.40;10.23;;;;;;;-3.05;55.53;100938.00;5027266;28;20044;-58
2020/12/13 10:03:39;;;;;;;13.43;5.57;;;;;;;-2.78;55.13;100967.53;5038993;28;20408;-50
2020/12/13 10:09:01;;;;;;;25.00;10.45;;;;;;;-3.04;55.32;100953.72;5046422;28;20037;-60
2020/12/13 10:11:28;;;;;;;18.58;8.95;;;;;;;-3.00;55.86;100948.47;5028840;28;20060;-58
2020/12/13 10:13:54;;;;;;;28.00;10.80;;;;;;;-3.00;56.02;100957.22;5027901;28;20053;-58
2020/12/13 10:16:19;;;;;;;20.30;9.90;;;;;;;-3.01;55.99;100951.97;5032741;28;20515;-58
2020/12/13 10:18:45;;;;;;;20.92;10.77;;;;;;;-2.98;55.73;100954.56;5023779;28;20434;-58
2020/12/13 10:21:10;;;;;;;17.20;7.05;;;;;;;-2.91;55.60;100956.25;5032475;28;20029;-57
2020/12/13 10:23:36;;;;;;;23.60;11.00;;;;;;;-2.99;55.92;100938.00;5042880;28;20163;-58
2020/12/13 10:26:01;;;;;;;23.05;10.10;;;;;;;-2.99;55.89;100932.75;5035559;28;20033;-62
2020/12/13 10:28:27;;;;;;;21.88;9.18;;;;;;;-2.83;55.69;100962.34;5038096;28;20602;-56
2020/12/13 10:30:52;;;;;;;20.88;9.45;;;;;;;-2.81;55.64;100964.94;5029808;28;20032;-59
2020/12/13 10:33:18;;;;;;;23.38;10.75;;;;;;;-2.94;56.28;100959.78;5031146;28;20034;-52
2020/12/13 10:35:45;;;;;;;24.10;11.48;;;;;;;-3.08;55.69;100920.56;5024312;28;20537;-58
2020/12/13 10:38:11;;;;;;;23.95;10.57;;;;;;;-2.85;55.73;100964.09;5023728;28;20034;-57
2020/12/13 10:40:40;;;;;;;22.83;11.43;;;;;;;-3.12;56.31;100912.72;5039922;28;20079;-54
2020/12/13 10:43:06;;;;;;;22.88;11.38;;;;;;;-2.77;56.04;100964.91;5034869;28;20053;-56
2020/12/13 10:45:32;;;;;;;23.92;9.75;;;;;;;-2.75;55.52;100952.66;5023936;28;20045;-56
2020/12/13 10:47:58;;;;;;;26.75;11.80;;;;;;;-2.94;55.76;100940.56;5027921;28;20210;-59
2020/12/13 10:50:24;;;;;;;24.42;11.25;;;;;;;-2.85;56.08;100948.38;5029250;28;20084;-62
2020/12/13 10:52:51;;;;;;;24.70;10.63;;;;;;;-3.21;56.22;100882.22;5041448;28;20195;-62
2020/12/13 10:55:16;;;;;;;24.88;11.27;;;;;;;-2.81;56.35;100972.78;5011820;28;20374;-63
2020/12/13 10:57:43;;;;;;;22.73;10.75;;;;;;;-2.80;56.53;100945.69;5028725;28;20068;-60
2020/12/13 11:00:08;;;;;;;13.23;6.45;;;;;;;-3.08;56.83;100865.56;5027106;28;20044;-56
2020/12/13 11:02:34;;;;;;;26.63;11.00;;;;;;;-2.76;56.63;100944.81;5024574;28;20041;-63
2020/12/13 11:04:59;;;;;;;25.85;9.75;;;;;;;-2.74;57.26;100945.69;5008895;28;20433;-62
2020/12/13 11:07:25;;;;;;;24.35;11.07;;;;;;;-2.83;57.43;100945.72;5007514;28;20078;-62
2020/12/13 11:09:52;;;;;;;18.35;7.32;;;;;;;-2.70;57.48;100938.63;5007786;28;20041;-59
2020/12/13 11:12:17;;;;;;;22.27;10.00;;;;;;;-2.75;56.83;100942.19;5009787;28;20392;-61
2020/12/13 11:14:43;;;;;;;23.25;11.00;;;;;;;-2.68;57.02;100953.50;5010187;28;20041;-63
2020/12/13 11:17:09;;;;;;;25.38;11.48;;;;;;;-2.83;56.97;100933.50;5009959;28;20048;-61
2020/12/13 11:19:34;;;;;;;23.50;10.20;;;;;;;-2.71;57.28;100965.75;5010420;28;20049;-62
2020/12/13 11:22:00;;;;;;;22.90;11.27;;;;;;;-2.80;57.45;100938.72;5009350;28;20118;-61
2020/12/13 11:24:25;;;;;;;22.30;11.05;;;;;;;-2.69;57.62;100951.75;5007538;28;20112;-61
2020/12/13 11:26:51;;;;;;;22.40;11.13;;;;;;;-2.72;57.05;100912.47;5009911;28;20048;-62
2020/12/13 11:29:16;;;;;;;24.10;11.38;;;;;;;-2.61;56.86;100944.69;5008268;28;20030;-62